sensor_id;sensor_type;location;lat;lon;timestamp;temperature;humidity
22145;DHT22;11238;48.730;11.566;2022-11-04T00:02:23;8.80;99.90
22145;DHT22;11238;48.730;11.566;2022-11-04T00:04:49;8.80;99.90
22145;DHT22;11238;48.730;11.566;2022-11-04T00:07:14;8.70;99.90
22145;DHT22;11238;48.730;11.566;2022-11-04T00:09:59;8.70;99.90
22145;DHT22;11238;48.730;11.566;2022-11-04T00:12:24;8.60;99.90
22145;DHT22;11238;48.730;11.566;2022-11-04T00:14:50;8.70;99.90
22145;DHT22;11238;48.730;11.566;2022-11-04T00:17:16;8.60;99.90
22145;DHT22;11238;48.730;11.566;2022-11-04T00:19:51;8.60;99.90
22145;DHT22;11238;48.730;11.566;2022-11-04T00:22:37;8.60;99.90
22145;DHT22;11238;48.730;11.566;2022-11-04T00:25:22;8.50;99.90
22145;DHT22;11238;48.730;11.566;2022-11-04T00:30:58;8.50;99.90
22145;DHT22;11238;48.730;11.566;2022-11-04T00:33:48;8.60;99.90
22145;DHT22;11238;48.730;11.566;2022-11-04T00:36:14;8.60;99.90
22145;DHT22;11238;48.730;11.566;2022-11-04T00:38:41;8.70;99.90
22145;DHT22;11238;48.730;11.566;2022-11-04T00:41:06;8.70;99.90
22145;DHT22;11238;48.730;11.566;2022-11-04T00:43:51;8.80;99.90
22145;DHT22;11238;48.730;11.566;2022-11-04T00:46:17;8.80;99.90
22145;DHT22;11238;48.730;11.566;2022-11-04T00:48:43;8.90;99.90
22145;DHT22;11238;48.730;11.566;2022-11-04T00:51:08;8.90;99.90
22145;DHT22;11238;48.730;11.566;2022-11-04T00:53:34;8.90;99.90
22145;DHT22;11238;48.730;11.566;2022-11-04T00:56:00;9.00;99.90
22145;DHT22;11238;48.730;11.566;2022-11-04T00:58:27;9.00;99.90
22145;DHT22;11238;48.730;11.566;2022-11-04T01:00:53;9.00;99.90
22145;DHT22;11238;48.730;11.566;2022-11-04T01:03:19;9.00;99.90
22145;DHT22;11238;48.730;11.566;2022-11-04T01:05:45;9.00;99.90
22145;DHT22;11238;48.730;11.566;2022-11-04T01:08:10;9.10;99.90
22145;DHT22;11238;48.730;11.566;2022-11-04T01:10:36;9.10;99.90
22145;DHT22;11238;48.730;11.566;2022-11-04T01:13:12;9.10;99.90
22145;DHT22;11238;48.730;11.566;2022-11-04T01:15:38;9.10;99.90
22145;DHT22;11238;48.730;11.566;2022-11-04T01:18:05;9.10;99.90
22145;DHT22;11238;48.730;11.566;2022-11-04T01:20:32;9.10;99.90
22145;DHT22;11238;48.730;11.566;2022-11-04T01:22:58;9.10;99.90
22145;DHT22;11238;48.730;11.566;2022-11-04T01:25:25;9.10;99.90
22145;DHT22;11238;48.730;11.566;2022-11-04T01:27:51;9.20;99.90
22145;DHT22;11238;48.730;11.566;2022-11-04T01:30:16;9.20;99.90
22145;DHT22;11238;48.730;11.566;2022-11-04T01:32:42;9.30;99.90
22145;DHT22;11238;48.730;11.566;2022-11-04T01:35:09;9.30;99.90
22145;DHT22;11238;48.730;11.566;2022-11-04T01:37:34;9.30;99.90
22145;DHT22;11238;48.730;11.566;2022-11-04T01:40:01;9.40;99.90
22145;DHT22;11238;48.730;11.566;2022-11-04T01:42:26;9.40;99.90
22145;DHT22;11238;48.730;11.566;2022-11-04T01:44:57;9.40;99.90
22145;DHT22;11238;48.730;11.566;2022-11-04T01:47:35;9.50;99.90
22145;DHT22;11238;48.730;11.566;2022-11-04T01:50:11;9.50;99.90
22145;DHT22;11238;48.730;11.566;2022-11-04T01:52:44;9.50;99.90
22145;DHT22;11238;48.730;11.566;2022-11-04T01:55:19;9.50;99.90
22145;DHT22;11238;48.730;11.566;2022-11-04T01:57:48;9.50;99.90
22145;DHT22;11238;48.730;11.566;2022-11-04T02:00:14;9.50;99.90
22145;DHT22;11238;48.730;11.566;2022-11-04T02:05:36;9.60;99.90
22145;DHT22;11238;48.730;11.566;2022-11-04T02:08:04;9.50;99.90
22145;DHT22;11238;48.730;11.566;2022-11-04T02:10:32;9.50;99.90
22145;DHT22;11238;48.730;11.566;2022-11-04T02:13:00;9.60;99.90
22145;DHT22;11238;48.730;11.566;2022-11-04T02:15:57;9.60;99.90
22145;DHT22;11238;48.730;11.566;2022-11-04T02:35:49;9.60;99.90
22145;DHT22;11238;48.730;11.566;2022-11-04T02:41:42;9.60;99.90
22145;DHT22;11238;48.730;11.566;2022-11-04T02:46:59;9.70;99.90
22145;DHT22;11238;48.730;11.566;2022-11-04T02:49:39;9.60;99.90
22145;DHT22;11238;48.730;11.566;2022-11-04T02:52:11;9.70;99.90
22145;DHT22;11238;48.730;11.566;2022-11-04T02:54:50;9.60;99.90
22145;DHT22;11238;48.730;11.566;2022-11-04T02:57:20;9.50;99.90
22145;DHT22;11238;48.730;11.566;2022-11-04T02:59:54;9.50;99.90
22145;DHT22;11238;48.730;11.566;2022-11-04T03:02:28;9.50;99.90
22145;DHT22;11238;48.730;11.566;2022-11-04T03:04:57;9.50;99.90
22145;DHT22;11238;48.730;11.566;2022-11-04T03:07:28;9.50;99.90
22145;DHT22;11238;48.730;11.566;2022-11-04T03:10:00;9.50;99.90
22145;DHT22;11238;48.730;11.566;2022-11-04T03:12:34;9.60;99.90
22145;DHT22;11238;48.730;11.566;2022-11-04T03:15:04;9.60;99.90
22145;DHT22;11238;48.730;11.566;2022-11-04T03:20:37;9.60;99.90
22145;DHT22;11238;48.730;11.566;2022-11-04T03:23:04;9.70;99.90
22145;DHT22;11238;48.730;11.566;2022-11-04T03:25:39;9.70;99.90
22145;DHT22;11238;48.730;11.566;2022-11-04T03:28:35;9.70;99.90
22145;DHT22;11238;48.730;11.566;2022-11-04T03:31:05;9.70;99.90
22145;DHT22;11238;48.730;11.566;2022-11-04T03:33:47;9.70;99.90
22145;DHT22;11238;48.730;11.566;2022-11-04T03:36:15;9.70;99.90
22145;DHT22;11238;48.730;11.566;2022-11-04T03:38:41;9.70;99.90
22145;DHT22;11238;48.730;11.566;2022-11-04T03:41:39;9.70;99.90
22145;DHT22;11238;48.730;11.566;2022-11-04T03:44:02;9.70;99.90
22145;DHT22;11238;48.730;11.566;2022-11-04T03:46:28;9.60;99.90
22145;DHT22;11238;48.730;11.566;2022-11-04T03:48:55;9.70;99.90
22145;DHT22;11238;48.730;11.566;2022-11-04T03:51:22;9.70;99.90
22145;DHT22;11238;48.730;11.566;2022-11-04T03:53:48;9.70;99.90
22145;DHT22;11238;48.730;11.566;2022-11-04T04:04:37;9.50;99.90
22145;DHT22;11238;48.730;11.566;2022-11-04T04:07:10;9.60;99.90
22145;DHT22;11238;48.730;11.566;2022-11-04T04:09:56;9.60;99.90
22145;DHT22;11238;48.730;11.566;2022-11-04T04:12:37;9.60;99.90
22145;DHT22;11238;48.730;11.566;2022-11-04T04:15:18;9.60;99.90
22145;DHT22;11238;48.730;11.566;2022-11-04T04:17:51;9.60;99.90
22145;DHT22;11238;48.730;11.566;2022-11-04T04:20:19;9.60;99.90
22145;DHT22;11238;48.730;11.566;2022-11-04T04:22:51;9.50;99.90
22145;DHT22;11238;48.730;11.566;2022-11-04T04:25:20;9.50;99.90
22145;DHT22;11238;48.730;11.566;2022-11-04T04:28:07;9.50;99.90
22145;DHT22;11238;48.730;11.566;2022-11-04T04:30:34;9.60;99.90
22145;DHT22;11238;48.730;11.566;2022-11-04T04:33:19;9.60;99.90
22145;DHT22;11238;48.730;11.566;2022-11-04T04:35:52;9.60;99.90
22145;DHT22;11238;48.730;11.566;2022-11-04T04:38:25;9.60;99.90
22145;DHT22;11238;48.730;11.566;2022-11-04T04:41:28;9.60;99.90
22145;DHT22;11238;48.730;11.566;2022-11-04T04:44:22;9.60;99.90
22145;DHT22;11238;48.730;11.566;2022-11-04T04:47:09;9.60;99.90
22145;DHT22;11238;48.730;11.566;2022-11-04T04:49:35;9.60;99.90
22145;DHT22;11238;48.730;11.566;2022-11-04T04:52:03;9.50;99.90
22145;DHT22;11238;48.730;11.566;2022-11-04T04:54:31;9.50;99.90
22145;DHT22;11238;48.730;11.566;2022-11-04T04:57:16;9.50;99.90
22145;DHT22;11238;48.730;11.566;2022-11-04T04:59:41;9.50;99.90
22145;DHT22;11238;48.730;11.566;2022-11-04T05:02:07;9.50;99.90
22145;DHT22;11238;48.730;11.566;2022-11-04T05:04:33;9.50;99.90
22145;DHT22;11238;48.730;11.566;2022-11-04T05:07:00;9.50;99.90
22145;DHT22;11238;48.730;11.566;2022-11-04T05:09:25;9.40;99.90
22145;DHT22;11238;48.730;11.566;2022-11-04T05:11:51;9.40;99.90
22145;DHT22;11238;48.730;11.566;2022-11-04T05:14:18;9.40;99.90
22145;DHT22;11238;48.730;11.566;2022-11-04T05:16:44;9.40;99.90
22145;DHT22;11238;48.730;11.566;2022-11-04T05:19:10;9.40;99.90
22145;DHT22;11238;48.730;11.566;2022-11-04T05:21:36;9.40;99.90
22145;DHT22;11238;48.730;11.566;2022-11-04T05:24:02;9.40;99.90
22145;DHT22;11238;48.730;11.566;2022-11-04T05:26:27;9.50;99.90
22145;DHT22;11238;48.730;11.566;2022-11-04T05:28:53;9.40;99.90
22145;DHT22;11238;48.730;11.566;2022-11-04T05:31:19;9.40;99.90
22145;DHT22;11238;48.730;11.566;2022-11-04T05:33:45;9.40;99.90
22145;DHT22;11238;48.730;11.566;2022-11-04T05:36:13;9.40;99.90
22145;DHT22;11238;48.730;11.566;2022-11-04T05:38:39;9.40;99.90
22145;DHT22;11238;48.730;11.566;2022-11-04T05:41:07;9.40;99.90
22145;DHT22;11238;48.730;11.566;2022-11-04T05:43:34;9.40;99.90
22145;DHT22;11238;48.730;11.566;2022-11-04T05:46:00;9.40;99.90
22145;DHT22;11238;48.730;11.566;2022-11-04T05:48:26;9.30;99.90
22145;DHT22;11238;48.730;11.566;2022-11-04T05:50:53;9.30;99.90
22145;DHT22;11238;48.730;11.566;2022-11-04T05:53:20;9.20;99.90
22145;DHT22;11238;48.730;11.566;2022-11-04T05:55:46;9.20;99.90
22145;DHT22;11238;48.730;11.566;2022-11-04T05:58:12;9.20;99.90
22145;DHT22;11238;48.730;11.566;2022-11-04T06:00:37;9.20;99.90
22145;DHT22;11238;48.730;11.566;2022-11-04T06:03:03;9.20;99.90
22145;DHT22;11238;48.730;11.566;2022-11-04T06:05:29;9.20;99.90
22145;DHT22;11238;48.730;11.566;2022-11-04T06:07:55;9.20;99.90
22145;DHT22;11238;48.730;11.566;2022-11-04T06:10:22;9.20;99.90
22145;DHT22;11238;48.730;11.566;2022-11-04T06:12:48;9.20;99.90
22145;DHT22;11238;48.730;11.566;2022-11-04T06:15:18;9.10;99.90
22145;DHT22;11238;48.730;11.566;2022-11-04T06:17:43;9.10;99.90
22145;DHT22;11238;48.730;11.566;2022-11-04T06:20:09;9.10;99.90
22145;DHT22;11238;48.730;11.566;2022-11-04T06:22:35;9.20;99.90
22145;DHT22;11238;48.730;11.566;2022-11-04T06:25:01;9.30;99.90
22145;DHT22;11238;48.730;11.566;2022-11-04T06:27:27;9.40;99.90
22145;DHT22;11238;48.730;11.566;2022-11-04T06:29:53;9.30;99.90
22145;DHT22;11238;48.730;11.566;2022-11-04T06:32:19;9.40;99.90
22145;DHT22;11238;48.730;11.566;2022-11-04T06:34:45;9.40;99.90
22145;DHT22;11238;48.730;11.566;2022-11-04T06:37:11;9.40;99.90
22145;DHT22;11238;48.730;11.566;2022-11-04T06:39:36;9.30;99.90
22145;DHT22;11238;48.730;11.566;2022-11-04T06:42:03;9.30;99.90
22145;DHT22;11238;48.730;11.566;2022-11-04T06:44:29;9.30;99.90
22145;DHT22;11238;48.730;11.566;2022-11-04T06:46:56;9.30;99.90
22145;DHT22;11238;48.730;11.566;2022-11-04T06:49:22;9.30;99.90
22145;DHT22;11238;48.730;11.566;2022-11-04T06:51:48;9.30;99.90
22145;DHT22;11238;48.730;11.566;2022-11-04T06:54:15;9.30;99.90
22145;DHT22;11238;48.730;11.566;2022-11-04T06:56:41;9.30;99.90
22145;DHT22;11238;48.730;11.566;2022-11-04T06:59:08;9.30;99.90
22145;DHT22;11238;48.730;11.566;2022-11-04T07:01:35;9.30;99.90
22145;DHT22;11238;48.730;11.566;2022-11-04T07:04:02;9.30;99.90
22145;DHT22;11238;48.730;11.566;2022-11-04T07:06:30;9.30;99.90
22145;DHT22;11238;48.730;11.566;2022-11-04T07:09:00;9.20;99.90
22145;DHT22;11238;48.730;11.566;2022-11-04T07:11:28;9.20;99.90
22145;DHT22;11238;48.730;11.566;2022-11-04T07:13:55;9.20;99.90
22145;DHT22;11238;48.730;11.566;2022-11-04T07:16:20;9.20;99.90
22145;DHT22;11238;48.730;11.566;2022-11-04T07:18:46;9.20;99.90
22145;DHT22;11238;48.730;11.566;2022-11-04T07:21:14;9.20;99.90
22145;DHT22;11238;48.730;11.566;2022-11-04T07:23:40;9.30;99.90
22145;DHT22;11238;48.730;11.566;2022-11-04T07:26:07;9.30;99.90
22145;DHT22;11238;48.730;11.566;2022-11-04T07:28:34;9.30;99.90
22145;DHT22;11238;48.730;11.566;2022-11-04T07:31:01;9.30;99.90
22145;DHT22;11238;48.730;11.566;2022-11-04T07:33:27;9.30;99.90
22145;DHT22;11238;48.730;11.566;2022-11-04T07:35:54;9.30;99.90
22145;DHT22;11238;48.730;11.566;2022-11-04T07:38:21;9.30;99.90
22145;DHT22;11238;48.730;11.566;2022-11-04T07:40:47;9.40;99.90
22145;DHT22;11238;48.730;11.566;2022-11-04T07:43:13;9.30;99.90
22145;DHT22;11238;48.730;11.566;2022-11-04T07:45:39;9.30;99.90
22145;DHT22;11238;48.730;11.566;2022-11-04T07:48:06;9.30;99.90
22145;DHT22;11238;48.730;11.566;2022-11-04T07:50:32;9.20;99.90
22145;DHT22;11238;48.730;11.566;2022-11-04T07:52:59;9.20;99.90
22145;DHT22;11238;48.730;11.566;2022-11-04T07:55:24;9.20;99.90
22145;DHT22;11238;48.730;11.566;2022-11-04T07:57:53;9.10;99.90
22145;DHT22;11238;48.730;11.566;2022-11-04T08:00:19;9.10;99.90
22145;DHT22;11238;48.730;11.566;2022-11-04T08:02:45;9.00;99.90
22145;DHT22;11238;48.730;11.566;2022-11-04T08:05:12;9.10;99.90
22145;DHT22;11238;48.730;11.566;2022-11-04T08:07:39;9.00;99.90
22145;DHT22;11238;48.730;11.566;2022-11-04T08:10:05;8.90;99.90
22145;DHT22;11238;48.730;11.566;2022-11-04T08:12:31;9.00;99.90
22145;DHT22;11238;48.730;11.566;2022-11-04T08:14:58;9.00;99.90
22145;DHT22;11238;48.730;11.566;2022-11-04T08:17:24;9.00;99.90
22145;DHT22;11238;48.730;11.566;2022-11-04T08:19:53;9.00;99.90
22145;DHT22;11238;48.730;11.566;2022-11-04T08:22:19;9.00;99.90
22145;DHT22;11238;48.730;11.566;2022-11-04T08:24:48;9.00;99.90
22145;DHT22;11238;48.730;11.566;2022-11-04T08:27:14;9.00;99.90
22145;DHT22;11238;48.730;11.566;2022-11-04T08:29:40;9.00;99.90
22145;DHT22;11238;48.730;11.566;2022-11-04T08:32:06;9.10;99.90
22145;DHT22;11238;48.730;11.566;2022-11-04T08:34:32;9.10;99.90
22145;DHT22;11238;48.730;11.566;2022-11-04T08:36:58;9.10;99.90
22145;DHT22;11238;48.730;11.566;2022-11-04T08:39:24;9.10;99.90
22145;DHT22;11238;48.730;11.566;2022-11-04T08:41:51;9.00;99.90
22145;DHT22;11238;48.730;11.566;2022-11-04T08:44:18;8.90;99.90
22145;DHT22;11238;48.730;11.566;2022-11-04T08:46:45;8.80;99.90
22145;DHT22;11238;48.730;11.566;2022-11-04T08:49:11;8.90;99.90
22145;DHT22;11238;48.730;11.566;2022-11-04T08:51:43;8.80;99.90
22145;DHT22;11238;48.730;11.566;2022-11-04T08:54:11;8.70;99.90
22145;DHT22;11238;48.730;11.566;2022-11-04T08:56:38;8.70;99.90
22145;DHT22;11238;48.730;11.566;2022-11-04T08:59:05;8.80;99.90
22145;DHT22;11238;48.730;11.566;2022-11-04T09:01:34;8.80;99.90
22145;DHT22;11238;48.730;11.566;2022-11-04T09:04:02;8.80;99.90
22145;DHT22;11238;48.730;11.566;2022-11-04T09:06:34;8.80;99.90
22145;DHT22;11238;48.730;11.566;2022-11-04T09:09:02;8.80;99.90
22145;DHT22;11238;48.730;11.566;2022-11-04T09:11:31;8.90;99.90
22145;DHT22;11238;48.730;11.566;2022-11-04T09:14:00;8.90;99.90
22145;DHT22;11238;48.730;11.566;2022-11-04T09:16:28;8.90;99.90
22145;DHT22;11238;48.730;11.566;2022-11-04T09:18:55;8.90;99.90
22145;DHT22;11238;48.730;11.566;2022-11-04T09:21:22;9.00;99.90
22145;DHT22;11238;48.730;11.566;2022-11-04T09:23:48;9.00;99.90
22145;DHT22;11238;48.730;11.566;2022-11-04T09:26:15;9.00;99.90
22145;DHT22;11238;48.730;11.566;2022-11-04T09:28:41;9.00;99.90
22145;DHT22;11238;48.730;11.566;2022-11-04T09:31:15;9.10;99.90
22145;DHT22;11238;48.730;11.566;2022-11-04T09:33:42;9.10;99.90
22145;DHT22;11238;48.730;11.566;2022-11-04T09:36:10;9.10;99.90
22145;DHT22;11238;48.730;11.566;2022-11-04T09:38:37;9.10;99.90
22145;DHT22;11238;48.730;11.566;2022-11-04T09:41:45;9.20;99.90
22145;DHT22;11238;48.730;11.566;2022-11-04T09:44:17;9.20;99.90
22145;DHT22;11238;48.730;11.566;2022-11-04T09:46:47;9.20;99.90
22145;DHT22;11238;48.730;11.566;2022-11-04T09:49:14;9.20;99.90
22145;DHT22;11238;48.730;11.566;2022-11-04T09:51:42;9.20;99.90
22145;DHT22;11238;48.730;11.566;2022-11-04T09:54:17;9.20;99.90
22145;DHT22;11238;48.730;11.566;2022-11-04T09:56:47;9.20;99.90
22145;DHT22;11238;48.730;11.566;2022-11-04T09:59:19;9.20;99.90
22145;DHT22;11238;48.730;11.566;2022-11-04T10:04:48;9.20;99.90
22145;DHT22;11238;48.730;11.566;2022-11-04T10:10:53;9.10;99.90
22145;DHT22;11238;48.730;11.566;2022-11-04T10:21:42;9.10;99.90
22145;DHT22;11238;48.730;11.566;2022-11-04T10:24:23;9.20;99.90
22145;DHT22;11238;48.730;11.566;2022-11-04T10:27:16;9.10;99.90
22145;DHT22;11238;48.730;11.566;2022-11-04T10:29:47;9.10;99.90
22145;DHT22;11238;48.730;11.566;2022-11-04T10:32:34;9.10;99.90
22145;DHT22;11238;48.730;11.566;2022-11-04T10:35:09;9.10;99.90
22145;DHT22;11238;48.730;11.566;2022-11-04T10:37:39;9.10;99.90
22145;DHT22;11238;48.730;11.566;2022-11-04T10:40:19;9.10;99.90
22145;DHT22;11238;48.730;11.566;2022-11-04T10:42:48;9.10;99.90
22145;DHT22;11238;48.730;11.566;2022-11-04T10:45:14;9.10;99.90
22145;DHT22;11238;48.730;11.566;2022-11-04T10:47:50;9.10;99.90
22145;DHT22;11238;48.730;11.566;2022-11-04T10:50:35;9.10;99.90
22145;DHT22;11238;48.730;11.566;2022-11-04T10:53:12;9.20;99.90
22145;DHT22;11238;48.730;11.566;2022-11-04T10:58:27;9.20;99.90
22145;DHT22;11238;48.730;11.566;2022-11-04T11:00:54;9.30;99.90
22145;DHT22;11238;48.730;11.566;2022-11-04T11:06:13;9.30;99.90
22145;DHT22;11238;48.730;11.566;2022-11-04T11:08:41;9.40;99.90
22145;DHT22;11238;48.730;11.566;2022-11-04T11:11:08;9.40;99.90
22145;DHT22;11238;48.730;11.566;2022-11-04T11:13:37;9.40;99.90
22145;DHT22;11238;48.730;11.566;2022-11-04T11:16:10;9.40;99.90
22145;DHT22;11238;48.730;11.566;2022-11-04T11:18:38;9.50;99.90
22145;DHT22;11238;48.730;11.566;2022-11-04T11:21:08;9.50;99.90
22145;DHT22;11238;48.730;11.566;2022-11-04T11:23:40;9.50;99.90
22145;DHT22;11238;48.730;11.566;2022-11-04T11:26:18;9.50;99.90
22145;DHT22;11238;48.730;11.566;2022-11-04T11:28:50;9.60;99.90
22145;DHT22;11238;48.730;11.566;2022-11-04T11:31:17;9.60;99.90
22145;DHT22;11238;48.730;11.566;2022-11-04T11:33:56;9.70;99.90
22145;DHT22;11238;48.730;11.566;2022-11-04T11:36:29;9.70;99.90
22145;DHT22;11238;48.730;11.566;2022-11-04T11:38:56;9.80;99.90
22145;DHT22;11238;48.730;11.566;2022-11-04T11:41:23;9.80;99.90
22145;DHT22;11238;48.730;11.566;2022-11-04T11:44:03;9.80;99.90
22145;DHT22;11238;48.730;11.566;2022-11-04T11:46:34;9.80;99.90
22145;DHT22;11238;48.730;11.566;2022-11-04T11:49:04;9.80;99.90
22145;DHT22;11238;48.730;11.566;2022-11-04T11:51:33;9.90;99.90
22145;DHT22;11238;48.730;11.566;2022-11-04T11:57:01;9.90;99.90
22145;DHT22;11238;48.730;11.566;2022-11-04T11:59:48;9.90;99.90
22145;DHT22;11238;48.730;11.566;2022-11-04T12:02:30;9.90;99.90
22145;DHT22;11238;48.730;11.566;2022-11-04T12:04:59;10.00;99.90
22145;DHT22;11238;48.730;11.566;2022-11-04T12:10:29;9.90;99.90
22145;DHT22;11238;48.730;11.566;2022-11-04T12:13:02;9.90;99.90
22145;DHT22;11238;48.730;11.566;2022-11-04T12:16:03;9.80;99.90
22145;DHT22;11238;48.730;11.566;2022-11-04T12:21:25;9.80;99.90
22145;DHT22;11238;48.730;11.566;2022-11-04T12:27:11;9.90;99.90
22145;DHT22;11238;48.730;11.566;2022-11-04T12:30:03;9.90;99.90
22145;DHT22;11238;48.730;11.566;2022-11-04T12:32:59;9.90;99.90
22145;DHT22;11238;48.730;11.566;2022-11-04T12:43:46;9.90;99.90
22145;DHT22;11238;48.730;11.566;2022-11-04T12:49:19;9.90;99.90
22145;DHT22;11238;48.730;11.566;2022-11-04T13:00:11;9.90;99.90
22145;DHT22;11238;48.730;11.566;2022-11-04T13:05:35;9.90;99.90
22145;DHT22;11238;48.730;11.566;2022-11-04T13:08:28;9.90;99.90
22145;DHT22;11238;48.730;11.566;2022-11-04T13:11:22;10.00;99.90
22145;DHT22;11238;48.730;11.566;2022-11-04T13:14:01;10.10;99.90
22145;DHT22;11238;48.730;11.566;2022-11-04T13:16:32;10.00;99.90
22145;DHT22;11238;48.730;11.566;2022-11-04T13:19:00;10.00;99.90
22145;DHT22;11238;48.730;11.566;2022-11-04T13:21:31;10.10;99.90
22145;DHT22;11238;48.730;11.566;2022-11-04T13:24:27;10.30;99.90
22145;DHT22;11238;48.730;11.566;2022-11-04T13:26:59;10.50;99.90
22145;DHT22;11238;48.730;11.566;2022-11-04T13:29:27;10.50;99.90
22145;DHT22;11238;48.730;11.566;2022-11-04T13:32:24;10.50;99.90
22145;DHT22;11238;48.730;11.566;2022-11-04T13:35:45;10.40;99.90
22145;DHT22;11238;48.730;11.566;2022-11-04T13:38:19;10.40;99.90
22145;DHT22;11238;48.730;11.566;2022-11-04T13:40:58;10.40;99.90
22145;DHT22;11238;48.730;11.566;2022-11-04T13:43:36;10.30;99.90
22145;DHT22;11238;48.730;11.566;2022-11-04T13:46:24;10.40;99.90
22145;DHT22;11238;48.730;11.566;2022-11-04T13:48:59;10.30;99.90
22145;DHT22;11238;48.730;11.566;2022-11-04T13:51:42;10.30;99.90
22145;DHT22;11238;48.730;11.566;2022-11-04T13:59:29;10.30;99.90
22145;DHT22;11238;48.730;11.566;2022-11-04T14:07:05;10.30;99.90
22145;DHT22;11238;48.730;11.566;2022-11-04T14:14:36;10.30;99.90
22145;DHT22;11238;48.730;11.566;2022-11-04T14:17:03;10.20;99.90
22145;DHT22;11238;48.730;11.566;2022-11-04T14:19:46;10.30;99.90
22145;DHT22;11238;48.730;11.566;2022-11-04T14:22:23;10.30;99.90
22145;DHT22;11238;48.730;11.566;2022-11-04T14:24:57;10.30;99.90
22145;DHT22;11238;48.730;11.566;2022-11-04T14:27:35;10.30;99.90
22145;DHT22;11238;48.730;11.566;2022-11-04T14:30:03;10.30;99.90
22145;DHT22;11238;48.730;11.566;2022-11-04T14:32:37;10.30;99.90
22145;DHT22;11238;48.730;11.566;2022-11-04T14:35:05;10.30;99.90
22145;DHT22;11238;48.730;11.566;2022-11-04T14:37:35;10.30;99.90
22145;DHT22;11238;48.730;11.566;2022-11-04T14:40:05;10.20;99.90
22145;DHT22;11238;48.730;11.566;2022-11-04T14:42:50;10.20;99.90
22145;DHT22;11238;48.730;11.566;2022-11-04T14:45:21;10.20;99.90
22145;DHT22;11238;48.730;11.566;2022-11-04T14:47:51;10.20;99.90
22145;DHT22;11238;48.730;11.566;2022-11-04T14:50:24;10.10;99.90
22145;DHT22;11238;48.730;11.566;2022-11-04T14:55:29;10.10;99.90
22145;DHT22;11238;48.730;11.566;2022-11-04T14:57:56;10.10;99.90
22145;DHT22;11238;48.730;11.566;2022-11-04T15:03:22;10.10;99.90
22145;DHT22;11238;48.730;11.566;2022-11-04T15:05:55;10.10;99.90
22145;DHT22;11238;48.730;11.566;2022-11-04T15:08:23;10.10;99.90
22145;DHT22;11238;48.730;11.566;2022-11-04T15:10:49;10.10;99.90
22145;DHT22;11238;48.730;11.566;2022-11-04T15:13:18;10.10;99.90
22145;DHT22;11238;48.730;11.566;2022-11-04T15:15:45;10.10;99.90
22145;DHT22;11238;48.730;11.566;2022-11-04T15:18:19;10.10;99.90
22145;DHT22;11238;48.730;11.566;2022-11-04T15:20:55;10.10;99.90
22145;DHT22;11238;48.730;11.566;2022-11-04T15:23:26;10.10;99.90
22145;DHT22;11238;48.730;11.566;2022-11-04T15:25:52;10.10;99.90
22145;DHT22;11238;48.730;11.566;2022-11-04T15:28:27;10.10;99.90
22145;DHT22;11238;48.730;11.566;2022-11-04T15:31:13;10.10;99.90
22145;DHT22;11238;48.730;11.566;2022-11-04T15:33:44;10.10;99.90
22145;DHT22;11238;48.730;11.566;2022-11-04T15:36:16;10.10;99.90
22145;DHT22;11238;48.730;11.566;2022-11-04T15:39:01;10.10;99.90
22145;DHT22;11238;48.730;11.566;2022-11-04T15:41:28;10.00;99.90
22145;DHT22;11238;48.730;11.566;2022-11-04T15:44:20;10.00;99.90
22145;DHT22;11238;48.730;11.566;2022-11-04T15:46:55;9.90;99.90
22145;DHT22;11238;48.730;11.566;2022-11-04T15:49:27;9.80;99.90
22145;DHT22;11238;48.730;11.566;2022-11-04T15:52:07;9.70;99.90
22145;DHT22;11238;48.730;11.566;2022-11-04T15:54:39;9.70;99.90
22145;DHT22;11238;48.730;11.566;2022-11-04T15:57:19;9.70;99.90
22145;DHT22;11238;48.730;11.566;2022-11-04T16:00:03;9.60;99.90
22145;DHT22;11238;48.730;11.566;2022-11-04T16:02:46;9.60;99.90
22145;DHT22;11238;48.730;11.566;2022-11-04T16:07:44;9.60;99.90
22145;DHT22;11238;48.730;11.566;2022-11-04T16:10:37;9.60;99.90
22145;DHT22;11238;48.730;11.566;2022-11-04T16:13:31;9.60;99.90
22145;DHT22;11238;48.730;11.566;2022-11-04T16:21:04;9.70;99.90
22145;DHT22;11238;48.730;11.566;2022-11-04T16:23:31;9.60;99.90
22145;DHT22;11238;48.730;11.566;2022-11-04T16:26:02;9.60;99.90
22145;DHT22;11238;48.730;11.566;2022-11-04T16:28:38;9.60;99.90
22145;DHT22;11238;48.730;11.566;2022-11-04T16:31:08;9.60;99.90
22145;DHT22;11238;48.730;11.566;2022-11-04T16:33:48;9.50;99.90
22145;DHT22;11238;48.730;11.566;2022-11-04T16:36:14;9.40;99.90
22145;DHT22;11238;48.730;11.566;2022-11-04T16:39:00;9.30;99.90
22145;DHT22;11238;48.730;11.566;2022-11-04T16:41:33;9.20;99.90
22145;DHT22;11238;48.730;11.566;2022-11-04T16:44:00;9.20;99.90
22145;DHT22;11238;48.730;11.566;2022-11-04T16:46:45;9.10;99.90
22145;DHT22;11238;48.730;11.566;2022-11-04T16:49:23;9.10;99.90
22145;DHT22;11238;48.730;11.566;2022-11-04T16:52:00;9.10;99.90
22145;DHT22;11238;48.730;11.566;2022-11-04T16:54:27;9.10;99.90
22145;DHT22;11238;48.730;11.566;2022-11-04T16:56:54;9.10;99.90
22145;DHT22;11238;48.730;11.566;2022-11-04T16:59:20;9.20;99.90
22145;DHT22;11238;48.730;11.566;2022-11-04T17:01:46;9.10;99.90
22145;DHT22;11238;48.730;11.566;2022-11-04T17:04:12;9.20;99.90
22145;DHT22;11238;48.730;11.566;2022-11-04T17:06:38;9.10;99.90
22145;DHT22;11238;48.730;11.566;2022-11-04T17:09:15;9.10;99.90
22145;DHT22;11238;48.730;11.566;2022-11-04T17:11:43;9.10;99.90
22145;DHT22;11238;48.730;11.566;2022-11-04T17:14:08;9.10;99.90
22145;DHT22;11238;48.730;11.566;2022-11-04T17:16:35;9.10;99.90
22145;DHT22;11238;48.730;11.566;2022-11-04T17:19:00;9.10;99.90
22145;DHT22;11238;48.730;11.566;2022-11-04T17:21:26;9.10;99.90
22145;DHT22;11238;48.730;11.566;2022-11-04T17:23:53;9.00;99.90
22145;DHT22;11238;48.730;11.566;2022-11-04T17:26:21;9.00;99.90
22145;DHT22;11238;48.730;11.566;2022-11-04T17:28:46;8.90;99.90
22145;DHT22;11238;48.730;11.566;2022-11-04T17:31:18;8.90;99.90
22145;DHT22;11238;48.730;11.566;2022-11-04T17:33:45;8.80;99.90
22145;DHT22;11238;48.730;11.566;2022-11-04T17:36:16;8.90;99.90
22145;DHT22;11238;48.730;11.566;2022-11-04T17:38:42;8.80;99.90
22145;DHT22;11238;48.730;11.566;2022-11-04T17:41:08;8.70;99.90
22145;DHT22;11238;48.730;11.566;2022-11-04T17:43:52;8.60;99.90
22145;DHT22;11238;48.730;11.566;2022-11-04T17:46:31;8.50;99.90
22145;DHT22;11238;48.730;11.566;2022-11-04T17:49:14;8.40;99.90
22145;DHT22;11238;48.730;11.566;2022-11-04T17:51:41;8.40;99.90
22145;DHT22;11238;48.730;11.566;2022-11-04T17:54:08;8.30;99.90
22145;DHT22;11238;48.730;11.566;2022-11-04T17:56:34;8.30;99.90
22145;DHT22;11238;48.730;11.566;2022-11-04T17:59:01;8.30;99.90
22145;DHT22;11238;48.730;11.566;2022-11-04T18:01:28;8.30;99.90